Time;durP1;ratioP1;P1;durP2;ratioP2;P2;SDS_P1;SDS_P2;PMS_P1;PMS_P2;Temp;Humidity;BMP_temperature;BMP_pressure;BME280_temperature;BME280_humidity;BME280_pressure;Samples;Min_cycle;Max_cycle;Signal;HPM_P1;HPM_P2
2023/08/01 00:04:51;;;;;;;5.05;4.03;;;;;;;;;;9868273;29;20047;-72
2023/08/01 00:09:43;;;;;;;8.68;4.85;;;;;;;;;;9870971;29;20047;-70
2023/08/01 00:14:36;;;;;;;5.05;4.47;;;;;;;;;;9866918;29;20044;-72
2023/08/01 00:19:28;;;;;;;4.60;3.50;;;;;;;;;;9865769;29;20048;-72
2023/08/01 00:24:20;;;;;;;5.38;3.40;;;;;;;;;;9867863;29;20139;-72
2023/08/01 00:29:12;;;;;;;4.53;4.13;;;;;;;;;;9868011;29;20121;-73
2023/08/01 00:34:04;;;;;;;8.65;4.85;;;;;;;;;;9870914;29;20043;-69
2023/08/01 00:38:56;;;;;;;6.05;3.38;;;;;;;;;;9866850;29;20058;-72
2023/08/01 00:43:48;;;;;;;4.50;3.80;;;;;;;;;;9870715;29;20050;-74
2023/08/01 00:48:40;;;;;;;5.53;4.30;;;;;;;;;;9877291;28;20118;-74
2023/08/01 00:53:32;;;;;;;5.40;4.05;;;;;;;;;;9869062;29;20063;-76
2023/08/01 00:58:25;;;;;;;4.20;3.80;;;;;;;;;;9866627;29;20056;-75
2023/08/01 01:03:18;;;;;;;5.90;4.00;;;;;;;;;;9857521;29;20594;-75
2023/08/01 01:08:11;;;;;;;10.35;4.82;;;;;;;;;;9861601;29;20048;-75
2023/08/01 01:13:03;;;;;;;4.03;3.40;;;;;;;;;;9868101;29;20562;-75
2023/08/01 01:17:55;;;;;;;4.75;4.25;;;;;;;;;;9881737;28;20087;-75
2023/08/01 01:22:48;;;;;;;6.75;3.78;;;;;;;;;;9882716;28;20474;-75
2023/08/01 01:27:40;;;;;;;4.63;3.50;;;;;;;;;;9866963;29;20044;-72
2023/08/01 01:32:33;;;;;;;5.80;4.30;;;;;;;;;;9854384;29;20050;-73
2023/08/01 01:37:29;;;;;;;4.40;4.00;;;;;;;;;;9869026;29;20051;-73
2023/08/01 01:42:31;;;;;;;4.03;3.72;;;;;;;;;;9865322;29;20537;-73
2023/08/01 01:47:23;;;;;;;5.03;3.72;;;;;;;;;;9863661;29;20051;-74
2023/08/01 01:52:15;;;;;;;8.63;3.97;;;;;;;;;;9868383;29;20779;-74
2023/08/01 01:57:07;;;;;;;4.25;3.85;;;;;;;;;;9867137;29;20055;-75
2023/08/01 02:01:59;;;;;;;11.50;4.40;;;;;;;;;;9862954;29;20067;-74
2023/08/01 02:06:54;;;;;;;5.03;3.90;;;;;;;;;;9863446;29;20052;-76
2023/08/01 02:11:46;;;;;;;6.00;3.58;;;;;;;;;;9855134;29;20059;-76
2023/08/01 02:16:38;;;;;;;6.53;3.85;;;;;;;;;;9873963;29;20047;-75
2023/08/01 02:21:31;;;;;;;4.85;3.97;;;;;;;;;;9864476;28;20044;-75
2023/08/01 02:26:24;;;;;;;5.05;3.60;;;;;;;;;;9875279;29;20051;-74
2023/08/01 02:31:16;;;;;;;4.03;3.63;;;;;;;;;;9862591;29;20262;-75
2023/08/01 02:36:08;;;;;;;5.57;3.70;;;;;;;;;;9873600;29;20040;-74
2023/08/01 02:41:00;;;;;;;4.20;3.78;;;;;;;;;;9868566;29;20048;-75
2023/08/01 02:45:52;;;;;;;4.45;4.05;;;;;;;;;;9885697;28;20059;-74
2023/08/01 02:50:45;;;;;;;4.60;4.10;;;;;;;;;;9870700;29;20419;-76
2023/08/01 02:55:38;;;;;;;4.65;3.30;;;;;;;;;;9869133;29;20094;-76
2023/08/01 03:00:31;;;;;;;3.85;3.50;;;;;;;;;;9866056;29;20146;-76
2023/08/01 03:05:23;;;;;;;4.45;3.22;;;;;;;;;;9865976;29;20094;-76
2023/08/01 03:10:15;;;;;;;4.80;3.85;;;;;;;;;;9868092;29;20058;-76
2023/08/01 03:15:27;;;;;;;4.45;3.60;;;;;;;;;;9870225;29;20138;-75
2023/08/01 03:20:19;;;;;;;6.22;3.65;;;;;;;;;;9869072;29;20359;-75
2023/08/01 03:25:11;;;;;;;4.20;3.80;;;;;;;;;;9873147;29;20036;-75
2023/08/01 03:30:04;;;;;;;3.53;3.22;;;;;;;;;;9869901;29;20071;-76
2023/08/01 03:34:56;;;;;;;6.07;3.90;;;;;;;;;;9871813;29;20055;-78
2023/08/01 03:39:48;;;;;;;5.90;3.88;;;;;;;;;;9866300;29;20081;-77
2023/08/01 03:44:40;;;;;;;5.43;3.60;;;;;;;;;;9866494;29;20071;-76
2023/08/01 03:49:32;;;;;;;3.72;3.25;;;;;;;;;;9869315;29;20043;-76
2023/08/01 03:54:24;;;;;;;5.55;3.72;;;;;;;;;;9868788;29;20051;-76
2023/08/01 03:59:16;;;;;;;5.45;3.63;;;;;;;;;;9868895;29;20067;-74
2023/08/01 04:04:09;;;;;;;6.93;3.90;;;;;;;;;;9866853;29;20545;-73
2023/08/01 04:09:01;;;;;;;4.30;3.90;;;;;;;;;;9870365;29;20126;-75
2023/08/01 04:13:52;;;;;;;5.18;4.00;;;;;;;;;;9869382;29;20052;-74
2023/08/01 04:18:44;;;;;;;5.78;3.75;;;;;;;;;;9868403;29;20062;-74
2023/08/01 04:23:36;;;;;;;7.20;3.67;;;;;;;;;;9864673;29;20134;-74
2023/08/01 04:28:28;;;;;;;4.18;3.78;;;;;;;;;;9860252;29;20543;-75
2023/08/01 04:33:20;;;;;;;11.68;3.58;;;;;;;;;;9858044;29;20058;-74
2023/08/01 04:38:12;;;;;;;6.90;3.47;;;;;;;;;;9870570;29;20052;-73
2023/08/01 04:43:04;;;;;;;7.18;3.38;;;;;;;;;;9870226;29;20060;-78
2023/08/01 04:47:56;;;;;;;6.68;4.15;;;;;;;;;;9869763;29;20054;-75
2023/08/01 04:52:47;;;;;;;3.97;2.67;;;;;;;;;;9870331;29;20044;-76
2023/08/01 04:57:39;;;;;;;9.70;3.60;;;;;;;;;;9849097;29;20055;-76
2023/08/01 05:02:31;;;;;;;3.47;2.90;;;;;;;;;;9870647;29;20074;-75
2023/08/01 05:07:23;;;;;;;4.38;2.95;;;;;;;;;;9869380;29;20048;-75
2023/08/01 05:12:15;;;;;;;3.58;3.20;;;;;;;;;;9870615;29;20039;-76
2023/08/01 05:17:07;;;;;;;5.65;3.85;;;;;;;;;;9870780;29;20056;-76
2023/08/01 05:21:59;;;;;;;10.25;4.05;;;;;;;;;;9835633;29;20051;-75
2023/08/01 05:26:51;;;;;;;5.45;4.13;;;;;;;;;;9844459;29;20527;-75
2023/08/01 05:31:43;;;;;;;15.30;4.20;;;;;;;;;;9855020;29;20048;-75
2023/08/01 05:36:35;;;;;;;8.25;4.50;;;;;;;;;;9861423;29;20142;-74
2023/08/01 05:41:27;;;;;;;9.70;4.63;;;;;;;;;;9883733;29;20417;-74
2023/08/01 05:46:18;;;;;;;6.72;3.88;;;;;;;;;;9876821;29;20095;-75
2023/08/01 05:51:10;;;;;;;8.55;4.15;;;;;;;;;;9876711;29;20525;-74
2023/08/01 05:56:04;;;;;;;4.90;4.05;;;;;;;;;;9875808;29;20050;-74
2023/08/01 06:00:56;;;;;;;5.65;4.38;;;;;;;;;;9839020;29;20040;-74
2023/08/01 06:05:49;;;;;;;4.10;3.70;;;;;;;;;;9876739;29;20095;-73
2023/08/01 06:10:41;;;;;;;6.18;3.88;;;;;;;;;;9876456;29;20051;-75
2023/08/01 06:15:33;;;;;;;4.47;3.35;;;;;;;;;;9872357;29;20107;-76
2023/08/01 06:20:25;;;;;;;4.45;3.72;;;;;;;;;;9874320;29;20490;-75
2023/08/01 06:25:17;;;;;;;6.65;3.58;;;;;;;;;;9874520;29;20047;-74
2023/08/01 06:30:10;;;;;;;5.47;4.13;;;;;;;;;;9876150;29;20115;-76
2023/08/01 06:35:01;;;;;;;4.20;2.88;;;;;;;;;;9854850;29;20075;-76
2023/08/01 06:39:55;;;;;;;8.60;3.70;;;;;;;;;;9862363;29;20091;-75
2023/08/01 06:44:47;;;;;;;12.82;4.28;;;;;;;;;;9867963;29;20190;-75
2023/08/01 06:49:38;;;;;;;9.65;3.90;;;;;;;;;;9870067;29;20107;-75
2023/08/01 06:54:32;;;;;;;12.10;6.47;;;;;;;;;;9838334;29;20051;-76
2023/08/01 06:59:23;;;;;;;5.30;4.35;;;;;;;;;;9854949;29;20047;-75
2023/08/01 07:04:15;;;;;;;7.95;4.60;;;;;;;;;;9861040;29;20551;-74
2023/08/01 07:09:07;;;;;;;9.38;5.00;;;;;;;;;;9846563;29;20091;-76
2023/08/01 07:13:59;;;;;;;8.77;4.00;;;;;;;;;;9859743;29;20143;-72
2023/08/01 07:18:51;;;;;;;4.45;3.83;;;;;;;;;;9871308;29;20048;-65
2023/08/01 07:23:43;;;;;;;7.13;3.80;;;;;;;;;;9873946;29;20078;-66
2023/08/01 07:28:35;;;;;;;6.63;4.63;;;;;;;;;;9861076;29;20040;-68
2023/08/01 07:33:27;;;;;;;4.70;3.80;;;;;;;;;;9874310;29;20138;-69
2023/08/01 07:38:19;;;;;;;11.57;7.00;;;;;;;;;;9872195;29;20474;-67
2023/08/01 07:43:12;;;;;;;14.70;8.02;;;;;;;;;;9870067;29;20075;-67
2023/08/01 07:48:04;;;;;;;9.15;7.55;;;;;;;;;;9872156;28;20131;-68
2023/08/01 07:52:57;;;;;;;7.20;5.95;;;;;;;;;;9842995;29;20044;-67
2023/08/01 07:57:49;;;;;;;5.65;4.57;;;;;;;;;;9840336;29;20043;-68
2023/08/01 08:02:45;;;;;;;7.40;4.72;;;;;;;;;;9869645;29;20460;-69
2023/08/01 08:07:37;;;;;;;11.73;4.72;;;;;;;;;;9858184;29;20052;-68
2023/08/01 08:12:29;;;;;;;17.95;6.88;;;;;;;;;;9837145;29;20360;-68
2023/08/01 08:17:21;;;;;;;8.60;6.40;;;;;;;;;;9834441;29;20055;-69
2023/08/01 08:22:13;;;;;;;11.43;6.20;;;;;;;;;;9834340;29;20068;-69
2023/08/01 08:27:05;;;;;;;9.95;4.65;;;;;;;;;;9833513;29;20423;-69
2023/08/01 08:31:57;;;;;;;7.03;4.80;;;;;;;;;;9855153;29;20360;-69
2023/08/01 08:36:52;;;;;;;5.95;4.13;;;;;;;;;;9870160;29;20486;-65
2023/08/01 08:41:54;;;;;;;6.07;5.00;;;;;;;;;;9870819;29;20048;-67
2023/08/01 08:46:52;;;;;;;5.85;5.20;;;;;;;;;;9863688;29;20044;-71
2023/08/01 08:51:44;;;;;;;;;;;;;;;;;;9868744;29;20051;-70
2023/08/01 08:56:36;;;;;;;7.25;5.63;;;;;;;;;;9868239;29;20349;-69
2023/08/01 09:01:28;;;;;;;9.40;7.78;;;;;;;;;;9868484;29;20095;-70
2023/08/01 09:06:25;;;;;;;9.63;7.35;;;;;;;;;;9869510;29;20058;-70
2023/08/01 09:11:17;;;;;;;11.90;7.90;;;;;;;;;;9865144;29;20463;-68
2023/08/01 09:16:10;;;;;;;10.07;7.03;;;;;;;;;;9858430;29;20052;-71
2023/08/01 09:21:03;;;;;;;8.02;6.50;;;;;;;;;;9866573;29;20092;-69
2023/08/01 09:25:56;;;;;;;13.70;8.10;;;;;;;;;;9842125;29;20048;-69
2023/08/01 09:30:52;;;;;;;7.65;6.95;;;;;;;;;;9859153;29;20399;-70
2023/08/01 09:35:45;;;;;;;10.40;6.55;;;;;;;;;;9838838;29;20470;-68
2023/08/01 09:40:38;;;;;;;8.07;6.78;;;;;;;;;;9857016;29;20135;-71
2023/08/01 09:45:30;;;;;;;10.02;6.72;;;;;;;;;;9836060;29;20041;-75
2023/08/01 09:50:23;;;;;;;10.52;7.85;;;;;;;;;;9840215;29;20060;-75
2023/08/01 09:55:15;;;;;;;20.50;8.70;;;;;;;;;;9837620;29;20530;-71
2023/08/01 10:00:09;;;;;;;13.25;6.65;;;;;;;;;;9863875;29;20427;-74
2023/08/01 10:05:04;;;;;;;5.97;5.38;;;;;;;;;;9865975;29;20438;-77
2023/08/01 10:09:58;;;;;;;5.78;5.07;;;;;;;;;;9849733;29;20051;-77
2023/08/01 10:14:50;;;;;;;10.57;6.45;;;;;;;;;;9835718;29;20052;-74
2023/08/01 10:19:42;;;;;;;16.67;7.00;;;;;;;;;;9855122;29;20095;-76
2023/08/01 10:24:35;;;;;;;8.52;5.85;;;;;;;;;;9864796;29;20066;-74
2023/08/01 10:29:36;;;;;;;9.65;5.05;;;;;;;;;;9857996;29;20151;-75
2023/08/01 10:34:30;;;;;;;10.55;6.60;;;;;;;;;;9871713;29;20055;-72
2023/08/01 10:39:23;;;;;;;12.05;5.50;;;;;;;;;;9878259;29;20358;-71
2023/08/01 10:44:15;;;;;;;6.95;5.22;;;;;;;;;;9873523;28;20048;-71
2023/08/01 10:49:09;;;;;;;6.13;4.70;;;;;;;;;;9869309;29;20075;-75
2023/08/01 10:54:01;;;;;;;10.35;6.45;;;;;;;;;;9873095;29;20086;-74
2023/08/01 10:58:53;;;;;;;8.38;5.30;;;;;;;;;;9872148;29;20078;-74
2023/08/01 11:03:45;;;;;;;7.38;4.25;;;;;;;;;;9870832;29;20055;-74
2023/08/01 11:08:38;;;;;;;8.38;3.75;;;;;;;;;;9873296;29;20167;-73
2023/08/01 11:13:30;;;;;;;5.40;4.35;;;;;;;;;;9864113;29;20107;-74
2023/08/01 11:18:22;;;;;;;8.55;4.32;;;;;;;;;;9867963;29;20051;-74
2023/08/01 11:23:14;;;;;;;10.88;5.72;;;;;;;;;;9871988;29;20044;-75
2023/08/01 11:28:08;;;;;;;6.25;4.90;;;;;;;;;;9859942;29;20064;-73
2023/08/01 11:33:02;;;;;;;9.38;4.93;;;;;;;;;;9851621;29;20036;-74
2023/08/01 11:37:56;;;;;;;6.22;4.07;;;;;;;;;;9872029;28;20150;-74
2023/08/01 11:42:51;;;;;;;5.07;3.45;;;;;;;;;;9864552;29;20054;-73
2023/08/01 11:47:47;;;;;;;5.50;3.70;;;;;;;;;;9867862;29;20493;-75
2023/08/01 11:52:39;;;;;;;7.05;3.50;;;;;;;;;;9864179;29;20048;-75
2023/08/01 11:57:31;;;;;;;6.03;4.18;;;;;;;;;;9864298;29;20043;-73
2023/08/01 12:02:30;;;;;;;4.07;3.53;;;;;;;;;;9866145;29;20533;-79
2023/08/01 12:07:25;;;;;;;5.25;4.50;;;;;;;;;;9861162;29;20058;-74
2023/08/01 12:12:17;;;;;;;6.32;3.80;;;;;;;;;;9864982;29;20118;-74
2023/08/01 12:17:09;;;;;;;6.43;4.45;;;;;;;;;;9864372;29;20043;-73
2023/08/01 12:22:01;;;;;;;7.43;3.50;;;;;;;;;;9862056;29;20052;-73
2023/08/01 12:26:53;;;;;;;5.53;3.70;;;;;;;;;;9859098;29;20052;-69
2023/08/01 12:31:45;;;;;;;8.95;3.22;;;;;;;;;;9865363;29;20052;-74
2023/08/01 12:36:37;;;;;;;7.75;4.18;;;;;;;;;;9852672;29;20047;-73
2023/08/01 12:41:30;;;;;;;6.13;4.03;;;;;;;;;;9863256;29;20086;-73
2023/08/01 12:46:22;;;;;;;6.50;4.20;;;;;;;;;;9868415;28;20079;-73
2023/08/01 12:51:14;;;;;;;8.02;3.20;;;;;;;;;;9864856;29;20067;-73
2023/08/01 12:56:06;;;;;;;5.47;3.60;;;;;;;;;;9847612;29;20502;-71
2023/08/01 13:00:58;;;;;;;7.32;4.40;;;;;;;;;;9851350;29;20044;-72
2023/08/01 13:05:52;;;;;;;5.78;3.63;;;;;;;;;;9850232;29;20043;-73
2023/08/01 13:10:46;;;;;;;5.10;3.65;;;;;;;;;;9857785;29;20063;-70
2023/08/01 13:15:37;;;;;;;7.57;3.67;;;;;;;;;;9853431;29;20422;-72
2023/08/01 13:20:29;;;;;;;8.77;4.13;;;;;;;;;;9854193;29;20040;-72
2023/08/01 13:25:25;;;;;;;4.32;3.78;;;;;;;;;;9853473;29;20036;-74
2023/08/01 13:30:20;;;;;;;5.88;3.83;;;;;;;;;;9858974;29;20145;-76
2023/08/01 13:35:12;;;;;;;6.70;4.10;;;;;;;;;;9856925;29;20051;-74
2023/08/01 13:40:05;;;;;;;7.80;4.38;;;;;;;;;;9858394;29;20070;-72
2023/08/01 13:44:57;;;;;;;5.30;3.60;;;;;;;;;;9849309;29;20044;-75
2023/08/01 13:49:49;;;;;;;9.43;3.70;;;;;;;;;;9858596;29;20135;-73
2023/08/01 13:54:41;;;;;;;10.93;3.97;;;;;;;;;;9858669;29;20708;-74
2023/08/01 13:59:32;;;;;;;9.23;3.83;;;;;;;;;;9860023;29;20074;-72
2023/08/01 14:04:24;;;;;;;4.93;3.42;;;;;;;;;;9869229;29;20427;-72
2023/08/01 14:09:16;;;;;;;7.53;3.92;;;;;;;;;;9872811;29;20134;-72
2023/08/01 14:14:08;;;;;;;5.25;3.22;;;;;;;;;;9869296;28;20138;-72
2023/08/01 14:19:01;;;;;;;6.75;3.78;;;;;;;;;;9879693;29;20517;-72
2023/08/01 14:23:53;;;;;;;5.82;3.42;;;;;;;;;;9870857;29;20146;-72
2023/08/01 14:28:46;;;;;;;11.45;3.67;;;;;;;;;;9865566;28;20394;-75
2023/08/01 14:33:37;;;;;;;5.25;3.33;;;;;;;;;;9848924;29;20047;-74
2023/08/01 14:38:29;;;;;;;7.47;3.75;;;;;;;;;;9860837;29;20048;-74
2023/08/01 14:43:21;;;;;;;6.32;3.75;;;;;;;;;;9858277;29;20039;-72
2023/08/01 14:48:13;;;;;;;5.43;3.72;;;;;;;;;;9855411;29;20457;-70
2023/08/01 14:53:07;;;;;;;6.72;3.55;;;;;;;;;;9866181;29;20040;-74
2023/08/01 14:57:59;;;;;;;7.10;3.50;;;;;;;;;;9857936;29;20332;-71
2023/08/01 15:02:51;;;;;;;6.10;3.10;;;;;;;;;;9867132;29;20050;-72
2023/08/01 15:07:44;;;;;;;9.50;3.50;;;;;;;;;;9847535;29;20455;-74
2023/08/01 15:12:35;;;;;;;7.18;3.10;;;;;;;;;;9859572;29;20052;-73
2023/08/01 15:17:27;;;;;;;6.03;3.85;;;;;;;;;;9855125;29;20603;-70
2023/08/01 15:22:20;;;;;;;3.92;2.90;;;;;;;;;;9851789;29;20044;-72
2023/08/01 15:27:12;;;;;;;5.60;3.30;;;;;;;;;;9834811;29;20075;-72
2023/08/01 15:32:05;;;;;;;4.30;3.38;;;;;;;;;;9858803;29;20044;-72
2023/08/01 15:36:57;;;;;;;6.78;3.78;;;;;;;;;;9863730;29;20470;-71
2023/08/01 15:41:49;;;;;;;6.47;3.47;;;;;;;;;;9859906;29;20064;-69
2023/08/01 15:46:41;;;;;;;6.18;3.20;;;;;;;;;;9847222;29;20046;-72
2023/08/01 15:51:33;;;;;;;8.25;3.80;;;;;;;;;;9843330;29;20425;-70
2023/08/01 15:56:25;;;;;;;3.65;2.78;;;;;;;;;;9851980;29;20045;-79
2023/08/01 16:01:17;;;;;;;7.15;3.72;;;;;;;;;;9853547;29;20052;-76
2023/08/01 16:06:10;;;;;;;5.07;3.63;;;;;;;;;;9860530;29;20737;-72
2023/08/01 16:11:02;;;;;;;5.60;3.70;;;;;;;;;;9862746;29;20051;-73
2023/08/01 16:15:54;;;;;;;9.55;4.55;;;;;;;;;;9854492;29;20398;-74
2023/08/01 16:20:46;;;;;;;4.75;3.10;;;;;;;;;;9863540;29;20143;-74
2023/08/01 16:25:39;;;;;;;6.35;3.40;;;;;;;;;;9858234;29;20092;-77
2023/08/01 16:30:31;;;;;;;7.22;3.50;;;;;;;;;;9859048;29;20043;-75
2023/08/01 16:35:24;;;;;;;5.53;3.75;;;;;;;;;;9858683;29;20485;-75
2023/08/01 16:40:16;;;;;;;8.00;3.20;;;;;;;;;;9858089;28;20066;-76
2023/08/01 16:45:09;;;;;;;9.32;3.55;;;;;;;;;;9855960;29;20044;-72
2023/08/01 16:50:02;;;;;;;4.95;3.75;;;;;;;;;;9859928;29;20386;-72
2023/08/01 16:54:55;;;;;;;7.07;4.45;;;;;;;;;;9844433;29;20044;-74
2023/08/01 16:59:47;;;;;;;8.25;4.10;;;;;;;;;;9847056;29;20466;-71
2023/08/01 17:04:40;;;;;;;4.63;3.20;;;;;;;;;;9852589;29;20075;-71
2023/08/01 17:09:32;;;;;;;6.75;3.60;;;;;;;;;;9855017;29;20358;-76
2023/08/01 17:14:24;;;;;;;5.43;2.97;;;;;;;;;;9860276;29;20048;-71
2023/08/01 17:19:16;;;;;;;11.02;3.55;;;;;;;;;;9859210;29;20445;-71
2023/08/01 17:24:12;;;;;;;14.43;3.88;;;;;;;;;;9854664;29;20095;-82
2023/08/01 17:29:04;;;;;;;4.90;3.30;;;;;;;;;;9862374;28;20069;-77
2023/08/01 17:33:58;;;;;;;5.90;3.50;;;;;;;;;;9857690;29;20051;-75
2023/08/01 17:38:50;;;;;;;7.25;3.47;;;;;;;;;;9862850;29;21004;-74
2023/08/01 17:43:42;;;;;;;6.68;3.65;;;;;;;;;;9865196;29;20454;-77
2023/08/01 17:48:36;;;;;;;4.32;3.50;;;;;;;;;;9867509;29;20504;-80
2023/08/01 17:53:28;;;;;;;7.25;3.25;;;;;;;;;;9864550;29;20541;-82
2023/08/01 17:58:20;;;;;;;5.20;4.00;;;;;;;;;;9866897;29;20082;-72
2023/08/01 18:03:12;;;;;;;17.17;4.65;;;;;;;;;;9864246;29;20048;-78
2023/08/01 18:08:04;;;;;;;12.75;3.95;;;;;;;;;;9855789;29;20739;-79
2023/08/01 18:12:56;;;;;;;5.78;3.45;;;;;;;;;;9865530;29;20047;-76
2023/08/01 18:17:48;;;;;;;6.10;4.10;;;;;;;;;;9868179;29;20079;-84
2023/08/01 18:22:40;;;;;;;6.00;4.13;;;;;;;;;;9866683;29;20143;-76
2023/08/01 18:27:32;;;;;;;10.77;3.95;;;;;;;;;;9870829;29;20469;-77
2023/08/01 18:32:23;;;;;;;7.35;4.63;;;;;;;;;;9868576;29;20044;-76
2023/08/01 18:37:15;;;;;;;6.55;4.32;;;;;;;;;;9860503;29;20486;-78
2023/08/01 18:42:07;;;;;;;8.05;4.70;;;;;;;;;;9862070;29;20079;-79
2023/08/01 18:46:59;;;;;;;7.85;4.60;;;;;;;;;;9862502;29;20091;-78
2023/08/01 18:51:51;;;;;;;7.15;4.10;;;;;;;;;;9860804;29;20079;-79
2023/08/01 18:56:42;;;;;;;10.88;4.30;;;;;;;;;;9864616;29;20047;-77
2023/08/01 19:01:34;;;;;;;8.65;4.55;;;;;;;;;;9859402;29;20637;-78
2023/08/01 19:06:27;;;;;;;6.07;4.28;;;;;;;;;;9862919;29;20402;-82
2023/08/01 19:11:19;;;;;;;11.50;5.45;;;;;;;;;;9858986;29;20063;-75
2023/08/01 19:16:12;;;;;;;9.40;4.47;;;;;;;;;;9865292;29;20044;-76
2023/08/01 19:21:04;;;;;;;5.53;4.20;;;;;;;;;;9858914;29;20035;-81
2023/08/01 19:25:56;;;;;;;8.73;5.00;;;;;;;;;;9864877;29;20466;-76
2023/08/01 19:30:48;;;;;;;7.28;4.03;;;;;;;;;;9866016;29;20070;-75
2023/08/01 19:35:41;;;;;;;5.22;3.92;;;;;;;;;;9864084;29;20471;-81
2023/08/01 19:40:36;;;;;;;7.22;3.97;;;;;;;;;;9833051;29;20588;-77
2023/08/01 19:45:29;;;;;;;8.55;4.50;;;;;;;;;;9863842;29;20039;-72
2023/08/01 19:50:21;;;;;;;19.23;4.75;;;;;;;;;;9852330;29;20471;-79
2023/08/01 19:55:12;;;;;;;7.93;4.40;;;;;;;;;;9861951;29;20087;-78
2023/08/01 20:00:07;;;;;;;5.68;4.40;;;;;;;;;;9869311;29;20050;-79
2023/08/01 20:05:02;;;;;;;;;;;;;;;;;;9858140;29;20108;-74
2023/08/01 20:09:54;;;;;;;5.80;4.65;;;;;;;;;;9868962;28;19997;-80
2023/08/01 20:14:46;;;;;;;7.03;4.22;;;;;;;;;;9867327;29;20061;-72
2023/08/01 20:19:40;;;;;;;5.60;4.05;;;;;;;;;;9864402;29;20098;-75
2023/08/01 20:24:31;;;;;;;7.45;4.40;;;;;;;;;;9870424;29;20048;-80
2023/08/01 20:29:23;;;;;;;9.05;4.38;;;;;;;;;;9847459;29;20048;-73
2023/08/01 20:34:15;;;;;;;5.82;4.65;;;;;;;;;;9866576;29;20134;-72
2023/08/01 20:39:07;;;;;;;15.30;6.22;;;;;;;;;;9871102;29;20047;-71
2023/08/01 20:44:00;;;;;;;8.82;5.25;;;;;;;;;;9868691;29;20040;-70
2023/08/01 20:48:52;;;;;;;6.10;4.70;;;;;;;;;;9869047;29;20079;-70
2023/08/01 20:53:44;;;;;;;8.48;5.82;;;;;;;;;;9868630;28;20048;-71
2023/08/01 20:58:36;;;;;;;7.20;4.28;;;;;;;;;;9866696;29;20043;-69
2023/08/01 21:03:27;;;;;;;8.60;5.00;;;;;;;;;;9866751;29;20130;-70
2023/08/01 21:08:19;;;;;;;7.13;4.45;;;;;;;;;;9866498;29;20051;-69
2023/08/01 21:13:11;;;;;;;8.02;4.35;;;;;;;;;;9865982;29;20040;-69
2023/08/01 21:18:03;;;;;;;6.00;4.47;;;;;;;;;;9867866;29;20097;-69
2023/08/01 21:22:55;;;;;;;6.75;4.75;;;;;;;;;;9868217;29;20853;-70
2023/08/01 21:27:47;;;;;;;5.80;4.13;;;;;;;;;;9868005;29;20051;-69
2023/08/01 21:32:39;;;;;;;6.53;4.78;;;;;;;;;;9866256;29;20083;-70
2023/08/01 21:37:31;;;;;;;8.02;4.43;;;;;;;;;;9866530;29;20052;-70
2023/08/01 21:42:24;;;;;;;9.20;4.32;;;;;;;;;;9865715;29;20165;-70
2023/08/01 21:47:16;;;;;;;7.38;4.50;;;;;;;;;;9864986;29;20047;-70
2023/08/01 21:52:08;;;;;;;7.63;4.40;;;;;;;;;;9865807;29;20101;-70
2023/08/01 21:57:00;;;;;;;7.18;4.50;;;;;;;;;;9865912;29;20470;-70
2023/08/01 22:01:52;;;;;;;6.68;4.70;;;;;;;;;;9856378;29;20044;-69
2023/08/01 22:06:44;;;;;;;9.50;4.72;;;;;;;;;;9852676;29;20040;-70
2023/08/01 22:11:36;;;;;;;5.85;3.92;;;;;;;;;;9865546;29;20476;-71
2023/08/01 22:16:29;;;;;;;9.27;5.25;;;;;;;;;;9867039;29;20107;-71
2023/08/01 22:21:21;;;;;;;6.25;4.10;;;;;;;;;;9866559;29;20517;-70
2023/08/01 22:26:12;;;;;;;10.32;4.90;;;;;;;;;;9872758;28;20059;-70
2023/08/01 22:31:05;;;;;;;8.00;4.65;;;;;;;;;;9873263;29;20051;-70
2023/08/01 22:35:57;;;;;;;7.03;4.03;;;;;;;;;;9872429;29;20051;-69
2023/08/01 22:40:49;;;;;;;7.45;4.65;;;;;;;;;;9872568;29;20055;-70
2023/08/01 22:45:41;;;;;;;4.72;4.10;;;;;;;;;;9873710;29;20051;-70
2023/08/01 22:50:33;;;;;;;5.88;3.95;;;;;;;;;;9873381;29;20435;-70
2023/08/01 22:55:26;;;;;;;8.48;4.65;;;;;;;;;;9873624;29;20507;-70
2023/08/01 23:00:18;;;;;;;6.05;4.50;;;;;;;;;;9873185;29;20071;-70
2023/08/01 23:05:11;;;;;;;7.15;3.70;;;;;;;;;;9871717;29;20110;-71
2023/08/01 23:10:04;;;;;;;6.75;5.05;;;;;;;;;;9871986;29;20047;-70
2023/08/01 23:14:57;;;;;;;8.70;4.38;;;;;;;;;;9872912;29;20044;-71
2023/08/01 23:19:49;;;;;;;7.10;4.18;;;;;;;;;;9870072;29;20040;-70
2023/08/01 23:24:47;;;;;;;7.97;4.82;;;;;;;;;;9869647;29;20117;-71
2023/08/01 23:29:39;;;;;;;11.50;5.00;;;;;;;;;;9870851;29;20051;-68
2023/08/01 23:34:31;;;;;;;7.28;4.72;;;;;;;;;;9870240;29;20052;-70
2023/08/01 23:39:23;;;;;;;6.78;4.00;;;;;;;;;;9889703;28;20067;-71
2023/08/01 23:44:15;;;;;;;5.72;3.95;;;;;;;;;;9885091;28;20052;-70
2023/08/01 23:49:07;;;;;;;7.60;4.47;;;;;;;;;;9856389;29;20431;-70
2023/08/01 23:53:58;;;;;;;7.93;4.90;;;;;;;;;;9856723;29;20083;-70
2023/08/01 23:58:50;;;;;;;6.72;4.55;;;;;;;;;;9862309;29;20591;-69
